Time;durP1;ratioP1;P1;durP2;ratioP2;P2;SDS_P1;SDS_P2;PMS_P1;PMS_P2;Temp;Humidity;BMP_temperature;BMP_pressure;BME280_temperature;BME280_humidity;BME280_pressure;Samples;Min_cycle;Max_cycle;Signal;HPM_P1;HPM_P2
2023/12/07 00:01:29;;;;;;;8.77;6.28;;;0.70;99.90;;;;;;5029560;28;20095;-76
2023/12/07 00:03:54;;;;;;;11.70;6.47;;;0.70;99.90;;;;;;5033728;28;20455;-76
2023/12/07 00:06:20;;;;;;;10.15;7.25;;;0.70;99.90;;;;;;5027794;28;20097;-76
2023/12/07 00:08:46;;;;;;;10.40;6.88;;;0.70;99.90;;;;;;5031275;28;20541;-76
2023/12/07 00:11:11;;;;;;;10.77;6.38;;;0.70;99.90;;;;;;5032708;28;20026;-76
2023/12/07 00:13:37;;;;;;;11.70;7.13;;;0.70;99.90;;;;;;5032352;28;20072;-76
2023/12/07 00:16:03;;;;;;;9.75;6.47;;;0.70;99.90;;;;;;5029982;28;20529;-76
2023/12/07 00:18:28;;;;;;;10.25;6.10;;;0.70;99.90;;;;;;5029413;28;20459;-76
2023/12/07 00:20:54;;;;;;;10.70;6.68;;;0.70;99.90;;;;;;5033082;28;20124;-75
2023/12/07 00:23:20;;;;;;;11.27;6.45;;;0.70;99.90;;;;;;5031646;28;20022;-76
2023/12/07 00:25:45;;;;;;;9.55;6.40;;;0.80;99.90;;;;;;5028446;28;20052;-76
2023/12/07 00:28:11;;;;;;;10.05;6.25;;;0.80;99.90;;;;;;5032506;28;20037;-76
2023/12/07 00:30:37;;;;;;;9.50;6.32;;;0.80;99.90;;;;;;5031211;28;20037;-75
2023/12/07 00:33:03;;;;;;;11.35;6.55;;;0.80;99.90;;;;;;5030598;28;20033;-75
2023/12/07 00:35:28;;;;;;;10.73;6.63;;;0.80;99.90;;;;;;5031370;28;20029;-76
2023/12/07 00:37:56;;;;;;;8.43;5.50;;;0.80;99.90;;;;;;5034574;28;20025;-76
2023/12/07 00:40:22;;;;;;;10.07;6.32;;;0.90;99.90;;;;;;5030817;28;20033;-75
2023/12/07 00:42:48;;;;;;;8.80;6.82;;;0.80;99.90;;;;;;5030114;28;20022;-75
2023/12/07 00:45:13;;;;;;;11.68;6.22;;;0.80;99.90;;;;;;5025465;28;20076;-75
2023/12/07 00:47:39;;;;;;;12.57;7.57;;;0.80;99.90;;;;;;5030134;28;20029;-74
2023/12/07 00:50:06;;;;;;;10.20;6.70;;;0.90;99.90;;;;;;5027416;28;20044;-75
2023/12/07 00:52:32;;;;;;;12.75;7.57;;;0.80;99.90;;;;;;5026587;28;20033;-75
2023/12/07 00:54:58;;;;;;;11.00;7.13;;;0.80;99.90;;;;;;5028426;28;20375;-75
2023/12/07 00:57:24;;;;;;;11.38;6.88;;;0.80;99.90;;;;;;5030435;28;20029;-74
2023/12/07 00:59:49;;;;;;;11.25;7.13;;;0.90;99.90;;;;;;5027715;28;20029;-75
2023/12/07 01:02:15;;;;;;;10.27;6.85;;;0.90;99.90;;;;;;5030128;28;20065;-76
2023/12/07 01:04:40;;;;;;;10.18;7.10;;;0.80;99.90;;;;;;5027814;28;20025;-75
2023/12/07 01:07:06;;;;;;;10.98;7.07;;;0.80;99.90;;;;;;5027621;28;20025;-75
2023/12/07 01:09:33;;;;;;;10.48;6.30;;;0.80;99.90;;;;;;5029955;28;20052;-75
2023/12/07 01:11:59;;;;;;;7.80;5.43;;;0.80;99.90;;;;;;5032484;28;20100;-75
2023/12/07 01:14:25;;;;;;;7.97;5.85;;;0.80;99.90;;;;;;5031642;28;20735;-76
2023/12/07 01:16:50;;;;;;;8.88;5.80;;;0.80;99.90;;;;;;5033912;28;20033;-75
2023/12/07 01:19:16;;;;;;;9.38;6.28;;;0.80;99.90;;;;;;5031627;28;20354;-76
2023/12/07 01:21:42;;;;;;;9.48;6.55;;;0.90;99.90;;;;;;5023695;28;20049;-75
2023/12/07 01:24:08;;;;;;;10.15;5.10;;;0.90;99.90;;;;;;5027602;28;20029;-75
2023/12/07 01:26:34;;;;;;;8.23;6.07;;;0.80;99.90;;;;;;5031165;28;20030;-75
2023/12/07 01:29:00;;;;;;;8.25;5.70;;;0.80;99.90;;;;;;5030082;28;20089;-76
2023/12/07 01:31:26;;;;;;;8.63;6.43;;;0.80;99.90;;;;;;5033450;28;20083;-75
2023/12/07 01:33:51;;;;;;;10.77;6.43;;;0.90;99.90;;;;;;5029944;28;20030;-75
2023/12/07 01:36:18;;;;;;;10.02;6.30;;;0.90;99.90;;;;;;5031344;28;20038;-75
2023/12/07 01:38:44;;;;;;;9.77;6.15;;;0.90;99.90;;;;;;5036418;28;20036;-75
2023/12/07 01:41:10;;;;;;;10.07;6.13;;;0.90;99.90;;;;;;5032402;28;20037;-75
2023/12/07 01:43:36;;;;;;;10.45;7.70;;;0.90;99.90;;;;;;5027753;28;20029;-75
2023/12/07 01:46:03;;;;;;;11.23;6.43;;;0.90;99.90;;;;;;5030822;28;20052;-75
2023/12/07 01:48:29;;;;;;;10.23;6.97;;;0.90;99.90;;;;;;5022911;28;20089;-75
2023/12/07 01:50:58;;;;;;;10.98;7.25;;;0.90;99.90;;;;;;5031140;28;20079;-75
2023/12/07 01:53:24;;;;;;;8.95;6.25;;;0.90;99.90;;;;;;5029798;28;20075;-75
2023/12/07 01:55:52;;;;;;;10.43;6.72;;;0.90;99.90;;;;;;5028891;28;20052;-75
2023/12/07 01:58:19;;;;;;;9.10;6.63;;;0.90;99.90;;;;;;5024635;28;20025;-75
2023/12/07 02:00:46;;;;;;;8.38;5.63;;;0.90;99.90;;;;;;5029018;28;20049;-76
2023/12/07 02:03:12;;;;;;;10.00;6.07;;;0.90;99.90;;;;;;5032013;28;20018;-76
2023/12/07 02:05:42;;;;;;;10.10;6.90;;;0.90;99.90;;;;;;5028011;28;20124;-75
2023/12/07 02:08:08;;;;;;;10.95;7.03;;;0.90;99.90;;;;;;5029567;28;20604;-74
2023/12/07 02:10:35;;;;;;;9.20;6.45;;;0.90;99.90;;;;;;5029978;28;20049;-75
2023/12/07 02:13:00;;;;;;;12.18;7.28;;;0.80;99.90;;;;;;5028546;28;20053;-75
2023/12/07 02:15:26;;;;;;;8.18;5.10;;;0.90;99.90;;;;;;5027729;28;20470;-75
2023/12/07 02:18:22;;;;;;;13.13;8.15;;;0.90;99.90;;;;;;5028199;28;20029;-75
2023/12/07 02:21:18;;;;;;;12.43;7.13;;;0.80;99.90;;;;;;5047085;28;20080;-75
2023/12/07 02:23:46;;;;;;;10.05;5.30;;;0.80;99.90;;;;;;5030279;28;20871;-75
2023/12/07 02:26:18;;;;;;;11.43;6.97;;;0.80;99.90;;;;;;5031005;28;20029;-75
2023/12/07 02:28:44;;;;;;;8.43;5.90;;;0.80;99.90;;;;;;5029143;28;20375;-75
2023/12/07 02:31:09;;;;;;;10.45;7.30;;;0.80;99.90;;;;;;5027996;28;20045;-75
2023/12/07 02:33:35;;;;;;;11.02;6.25;;;0.80;99.90;;;;;;5032697;28;20025;-75
2023/12/07 02:36:01;;;;;;;8.82;5.70;;;0.80;99.90;;;;;;5027745;28;20046;-75
2023/12/07 02:38:28;;;;;;;9.95;6.18;;;0.80;99.90;;;;;;5029196;28;20017;-76
2023/12/07 02:40:55;;;;;;;10.48;5.57;;;0.70;99.90;;;;;;5030564;28;20390;-75
2023/12/07 02:43:22;;;;;;;12.50;7.03;;;0.70;99.90;;;;;;5028733;28;20037;-76
2023/12/07 02:45:48;;;;;;;8.80;5.60;;;0.80;99.90;;;;;;5030410;28;20390;-75
2023/12/07 02:48:14;;;;;;;7.60;5.75;;;0.70;99.90;;;;;;5027229;28;20026;-75
2023/12/07 02:50:40;;;;;;;12.80;6.20;;;0.80;99.90;;;;;;5026059;28;20546;-75
2023/12/07 02:53:05;;;;;;;7.20;5.65;;;0.80;99.90;;;;;;5025474;28;20309;-75
2023/12/07 02:55:31;;;;;;;10.25;6.47;;;0.80;99.90;;;;;;5026221;28;20048;-75
2023/12/07 02:57:58;;;;;;;10.77;6.05;;;0.80;99.90;;;;;;5026076;28;20655;-75
2023/12/07 03:00:24;;;;;;;11.90;5.82;;;0.80;99.90;;;;;;5028603;28;20112;-75
2023/12/07 03:02:50;;;;;;;9.45;6.68;;;0.80;99.90;;;;;;5026671;28;20239;-75
2023/12/07 03:05:19;;;;;;;8.73;5.70;;;0.80;99.90;;;;;;5026819;28;20037;-75
2023/12/07 03:07:45;;;;;;;8.52;6.03;;;0.80;99.90;;;;;;5025073;28;20042;-75
2023/12/07 03:10:10;;;;;;;8.52;5.20;;;0.80;99.90;;;;;;5028131;28;20033;-75
2023/12/07 03:12:36;;;;;;;9.13;5.95;;;0.80;99.90;;;;;;5026877;28;20021;-75
2023/12/07 03:15:02;;;;;;;10.82;6.90;;;0.70;99.90;;;;;;5023312;28;20037;-75
2023/12/07 03:17:28;;;;;;;9.68;5.63;;;0.70;99.90;;;;;;5026833;28;20033;-75
2023/12/07 03:19:54;;;;;;;11.95;7.32;;;0.70;99.90;;;;;;5023910;28;20033;-75
2023/12/07 03:22:19;;;;;;;9.43;6.45;;;0.70;99.90;;;;;;5028377;28;20075;-74
2023/12/07 03:24:50;;;;;;;11.00;7.60;;;0.70;99.90;;;;;;5029776;28;20029;-75
2023/12/07 03:27:16;;;;;;;9.80;6.75;;;0.60;99.90;;;;;;5027319;28;20386;-75
2023/12/07 03:29:42;;;;;;;9.55;6.75;;;0.70;99.90;;;;;;5029296;28;20030;-75
2023/12/07 03:32:08;;;;;;;8.90;6.10;;;0.70;99.90;;;;;;5032132;28;20470;-75
2023/12/07 03:34:33;;;;;;;8.82;6.10;;;0.70;99.90;;;;;;5030785;28;20052;-75
2023/12/07 03:36:59;;;;;;;12.10;7.72;;;0.70;99.90;;;;;;5028825;28;20583;-75
2023/12/07 03:39:25;;;;;;;8.55;6.53;;;0.70;99.90;;;;;;5029990;28;20018;-75
2023/12/07 03:41:51;;;;;;;9.02;5.20;;;0.70;99.90;;;;;;5031632;28;20164;-75
2023/12/07 03:44:17;;;;;;;9.27;6.82;;;0.60;99.90;;;;;;5033493;28;20069;-75
2023/12/07 03:46:43;;;;;;;8.02;5.68;;;0.60;99.90;;;;;;5026308;28;20411;-75
2023/12/07 03:49:09;;;;;;;11.45;6.20;;;0.50;99.90;;;;;;5028835;28;20136;-75
2023/12/07 03:51:36;;;;;;;10.02;6.15;;;0.50;99.90;;;;;;5031358;28;20096;-75
2023/12/07 03:54:03;;;;;;;11.57;6.68;;;0.60;99.90;;;;;;5029356;28;20065;-75
2023/12/07 03:56:30;;;;;;;9.57;5.45;;;0.60;99.90;;;;;;5031680;28;20029;-75
2023/12/07 03:58:56;;;;;;;8.35;5.63;;;0.60;99.90;;;;;;5029437;28;20087;-75
2023/12/07 04:01:26;;;;;;;9.35;5.53;;;0.60;99.90;;;;;;5030834;28;20075;-75
2023/12/07 04:03:54;;;;;;;12.00;5.78;;;0.50;99.90;;;;;;5031026;28;20029;-74
2023/12/07 04:06:20;;;;;;;7.28;5.43;;;0.40;99.90;;;;;;5030438;28;20025;-76
2023/12/07 04:08:46;;;;;;;11.30;6.05;;;0.30;99.90;;;;;;5033612;28;20041;-75
2023/12/07 04:11:12;;;;;;;9.68;6.35;;;0.40;99.90;;;;;;5032246;28;20137;-75
2023/12/07 04:13:38;;;;;;;8.70;6.35;;;0.40;99.90;;;;;;5034174;28;20022;-75
2023/12/07 04:16:04;;;;;;;6.90;5.53;;;0.40;99.90;;;;;;5040398;28;20375;-76
2023/12/07 04:18:30;;;;;;;9.90;6.22;;;0.30;99.90;;;;;;5044451;28;20021;-75
2023/12/07 04:20:56;;;;;;;11.13;6.05;;;0.30;99.90;;;;;;5040813;28;20076;-76
2023/12/07 04:23:22;;;;;;;8.05;6.10;;;0.20;99.90;;;;;;5039520;28;20033;-76
2023/12/07 04:25:47;;;;;;;11.13;5.68;;;0.20;99.90;;;;;;5030067;28;20034;-76
2023/12/07 04:28:13;;;;;;;7.90;5.07;;;0.20;99.90;;;;;;5029126;28;20037;-76
2023/12/07 04:30:39;;;;;;;5.50;4.03;;;0.20;99.90;;;;;;5024257;28;20041;-75
2023/12/07 04:33:04;;;;;;;8.32;5.07;;;-0.20;99.90;;;;;;5029551;28;20383;-76
2023/12/07 04:35:30;;;;;;;6.57;4.55;;;-0.40;99.90;;;;;;5027181;28;20128;-74
2023/12/07 04:37:56;;;;;;;7.93;4.63;;;-0.30;99.90;;;;;;5025563;28;20964;-76
2023/12/07 04:40:22;;;;;;;9.43;5.55;;;-0.40;99.90;;;;;;5028720;28;20273;-74
2023/12/07 04:42:47;;;;;;;9.45;5.43;;;-0.30;99.90;;;;;;5029896;28;20021;-75
2023/12/07 04:45:13;;;;;;;6.13;5.15;;;-0.30;99.90;;;;;;5026508;28;20056;-75
2023/12/07 04:47:42;;;;;;;9.02;5.88;;;-0.30;99.90;;;;;;5027027;28;20076;-75
2023/12/07 04:50:07;;;;;;;;;;;-0.30;99.90;;;;;;5029008;28;20035;-77
2023/12/07 04:52:33;;;;;;;9.77;6.13;;;-0.30;99.90;;;;;;5029296;28;19909;-75
2023/12/07 04:54:59;;;;;;;5.95;4.53;;;-0.20;99.90;;;;;;5030164;28;20028;-75
2023/12/07 04:57:25;;;;;;;8.15;5.07;;;-0.20;99.90;;;;;;5027435;28;20033;-75
2023/12/07 04:59:51;;;;;;;5.57;5.03;;;-0.30;99.90;;;;;;5026588;28;20097;-75
2023/12/07 05:02:17;;;;;;;8.50;5.95;;;-0.30;99.90;;;;;;5027756;28;20030;-75
2023/12/07 05:04:44;;;;;;;6.70;5.15;;;-0.30;99.90;;;;;;5029660;28;20033;-75
2023/12/07 05:07:13;;;;;;;8.95;4.90;;;-0.30;99.90;;;;;;5030765;28;20037;-75
2023/12/07 05:09:40;;;;;;;4.30;3.85;;;-0.40;99.90;;;;;;5026155;28;20033;-75
2023/12/07 05:12:06;;;;;;;5.35;3.85;;;-0.40;99.90;;;;;;5029978;28;20405;-75
2023/12/07 05:14:32;;;;;;;6.03;4.50;;;-0.40;99.90;;;;;;5010621;28;20045;-74
2023/12/07 05:16:58;;;;;;;7.20;4.45;;;-0.40;99.90;;;;;;5027476;28;20021;-74
2023/12/07 05:19:25;;;;;;;6.07;4.65;;;-0.30;99.90;;;;;;5024884;28;20028;-74
2023/12/07 05:21:51;;;;;;;6.53;4.40;;;-0.50;99.90;;;;;;5028143;28;20076;-75
2023/12/07 05:24:17;;;;;;;3.40;3.10;;;-0.60;99.90;;;;;;5029946;28;20091;-75
2023/12/07 05:26:46;;;;;;;24.90;4.25;;;-1.00;99.90;;;;;;5029556;28;20636;-74
2023/12/07 05:29:12;;;;;;;9.48;4.53;;;-1.70;99.90;;;;;;5028821;28;20029;-74
2023/12/07 05:31:38;;;;;;;4.82;4.00;;;-1.70;99.90;;;;;;5026493;28;20091;-74
2023/12/07 05:34:05;;;;;;;5.55;4.07;;;-1.50;99.90;;;;;;5030388;28;20022;-76
2023/12/07 05:36:31;;;;;;;4.30;3.47;;;-1.30;99.90;;;;;;5028222;28;20036;-74
2023/12/07 05:38:57;;;;;;;7.13;4.85;;;-1.20;99.90;;;;;;5026809;28;20124;-74
2023/12/07 05:41:22;;;;;;;4.97;4.55;;;-1.10;99.90;;;;;;5026325;28;20490;-74
2023/12/07 05:43:48;;;;;;;21.67;8.40;;;-1.40;99.90;;;;;;5029095;28;20064;-74
2023/12/07 05:46:14;;;;;;;4.35;3.92;;;-1.90;99.90;;;;;;5028303;28;20030;-74
2023/12/07 05:48:40;;;;;;;4.63;3.65;;;-2.10;99.90;;;;;;5030556;28;20032;-74
2023/12/07 05:51:16;;;;;;;4.38;3.95;;;-1.80;99.90;;;;;;5026942;28;20044;-75
2023/12/07 05:53:45;;;;;;;5.15;4.05;;;-1.50;99.90;;;;;;5027625;28;20098;-75
2023/12/07 05:56:11;;;;;;;;;;;-1.30;99.90;;;;;;5029315;28;20040;-74
2023/12/07 05:58:37;;;;;;;4.25;3.60;;;-1.20;99.90;;;;;;5027015;28;19943;-75
2023/12/07 06:01:03;;;;;;;5.90;4.80;;;-1.30;99.90;;;;;;5036183;28;20033;-74
2023/12/07 06:03:29;;;;;;;5.22;4.05;;;-1.80;99.90;;;;;;5033657;28;20022;-72
2023/12/07 06:05:55;;;;;;;7.43;5.68;;;-1.90;99.90;;;;;;5033669;28;20032;-72
2023/12/07 06:08:21;;;;;;;5.13;3.63;;;-1.90;99.90;;;;;;5034426;28;20032;-75
2023/12/07 06:10:47;;;;;;;5.18;4.53;;;-1.80;99.90;;;;;;5030452;28;20033;-72
2023/12/07 06:13:13;;;;;;;7.28;5.15;;;-1.70;99.90;;;;;;5031863;28;20027;-73
2023/12/07 06:15:39;;;;;;;9.63;4.63;;;-1.70;99.90;;;;;;5030908;28;20753;-72
2023/12/07 06:18:05;;;;;;;5.97;4.40;;;-1.50;99.90;;;;;;5030260;28;20107;-73
2023/12/07 06:20:31;;;;;;;5.25;4.72;;;-1.40;99.90;;;;;;5028649;28;20057;-73
2023/12/07 06:22:57;;;;;;;3.92;3.50;;;-1.30;99.90;;;;;;5033234;28;20025;-73
2023/12/07 06:25:23;;;;;;;3.60;3.00;;;-1.40;99.90;;;;;;5030065;28;20883;-72
2023/12/07 06:27:49;;;;;;;7.25;5.10;;;-1.60;99.90;;;;;;5029172;28;20424;-72
2023/12/07 06:30:15;;;;;;;3.72;3.30;;;-1.70;99.90;;;;;;5028287;28;20100;-72
2023/12/07 06:32:41;;;;;;;8.55;5.05;;;-1.80;99.90;;;;;;5030438;28;20040;-72
2023/12/07 06:35:07;;;;;;;5.45;4.60;;;-2.00;99.90;;;;;;5031236;28;20175;-72
2023/12/07 06:37:33;;;;;;;9.35;5.68;;;-2.00;99.90;;;;;;5026308;28;20054;-74
2023/12/07 06:39:59;;;;;;;6.20;5.10;;;-1.80;99.90;;;;;;5025277;28;20091;-74
2023/12/07 06:42:28;;;;;;;4.90;4.47;;;-1.80;99.90;;;;;;5031386;28;20038;-74
2023/12/07 06:44:54;;;;;;;7.18;5.07;;;-1.80;99.90;;;;;;5027887;28;20040;-74
2023/12/07 06:47:19;;;;;;;7.43;5.18;;;-1.60;99.90;;;;;;5026244;28;20041;-74
2023/12/07 06:49:46;;;;;;;7.15;5.28;;;-1.60;99.90;;;;;;5025280;28;20034;-74
2023/12/07 06:52:11;;;;;;;5.60;4.13;;;-1.50;99.90;;;;;;5031706;28;20025;-74
2023/12/07 06:54:38;;;;;;;6.75;4.88;;;-1.50;99.90;;;;;;5026304;28;20395;-73
2023/12/07 06:57:06;;;;;;;6.95;5.57;;;-1.70;99.90;;;;;;5024294;28;20052;-73
2023/12/07 06:59:32;;;;;;;7.78;5.72;;;-1.60;99.90;;;;;;5026472;28;20136;-74
2023/12/07 07:02:02;;;;;;;5.20;4.70;;;-1.50;99.90;;;;;;5023010;28;20333;-74
2023/12/07 07:04:27;;;;;;;3.10;2.75;;;-1.40;99.90;;;;;;5023686;28;20017;-74
2023/12/07 07:06:53;;;;;;;6.95;4.90;;;-1.50;99.90;;;;;;5025799;28;20128;-75
2023/12/07 07:09:21;;;;;;;6.40;4.47;;;-1.60;99.90;;;;;;5015439;28;20040;-73
2023/12/07 07:11:50;;;;;;;5.55;4.65;;;-1.80;99.90;;;;;;5022189;28;20026;-74
2023/12/07 07:14:16;;;;;;;;;;;-1.70;99.90;;;;;;5018845;28;20026;-74
2023/12/07 07:16:42;;;;;;;8.45;5.60;;;-1.60;99.90;;;;;;5021203;28;20397;-74
2023/12/07 07:19:08;;;;;;;7.15;5.28;;;-1.80;99.90;;;;;;5017804;28;20428;-74
2023/12/07 07:21:34;;;;;;;6.32;5.72;;;-1.70;99.90;;;;;;5018210;28;20058;-74
2023/12/07 07:24:00;;;;;;;7.43;4.80;;;-1.60;99.90;;;;;;5024309;28;20073;-74
2023/12/07 07:26:25;;;;;;;6.80;4.82;;;-1.60;99.90;;;;;;5025189;28;20021;-74
2023/12/07 07:28:52;;;;;;;7.43;5.85;;;-1.50;99.90;;;;;;5022763;28;20033;-74
2023/12/07 07:31:18;;;;;;;7.22;5.32;;;-1.50;99.90;;;;;;5024546;28;20441;-74
2023/12/07 07:33:45;;;;;;;10.45;5.28;;;-1.50;99.90;;;;;;5026153;28;20029;-74
2023/12/07 07:36:11;;;;;;;7.28;5.53;;;-1.50;99.90;;;;;;5023308;28;20084;-74
2023/12/07 07:38:38;;;;;;;13.27;6.45;;;-1.50;99.90;;;;;;5022812;28;20552;-74
2023/12/07 07:41:04;;;;;;;9.63;6.25;;;-1.90;99.90;;;;;;5020987;28;20029;-73
2023/12/07 07:43:29;;;;;;;8.48;6.10;;;-1.80;99.90;;;;;;5019743;28;20022;-74
2023/12/07 07:45:56;;;;;;;7.57;4.88;;;-1.90;99.90;;;;;;5017350;28;20101;-74
2023/12/07 07:48:21;;;;;;;9.50;5.28;;;-1.80;99.90;;;;;;5022851;28;20026;-74
2023/12/07 07:50:50;;;;;;;7.07;5.65;;;-1.70;99.90;;;;;;5023996;28;20056;-72
2023/12/07 07:53:16;;;;;;;5.22;4.30;;;-1.70;99.90;;;;;;5022680;28;20021;-73
2023/12/07 07:55:42;;;;;;;8.80;6.15;;;-1.60;99.90;;;;;;5020626;28;20037;-74
2023/12/07 07:58:08;;;;;;;7.05;6.15;;;-1.60;99.90;;;;;;5022507;28;20025;-75
2023/12/07 08:00:34;;;;;;;8.30;6.30;;;-1.50;99.90;;;;;;5025361;28;20107;-73
2023/12/07 08:03:00;;;;;;;8.65;6.45;;;-1.50;99.90;;;;;;5018259;28;20037;-74
2023/12/07 08:05:25;;;;;;;8.77;5.05;;;-1.40;99.90;;;;;;5027391;28;20022;-74
2023/12/07 08:07:51;;;;;;;10.65;5.90;;;-1.40;99.90;;;;;;5021928;28;20069;-74
2023/12/07 08:10:17;;;;;;;9.15;5.65;;;-1.40;99.90;;;;;;5027424;28;20044;-74
2023/12/07 08:12:43;;;;;;;8.45;6.10;;;-1.40;99.90;;;;;;5024095;28;20068;-74
2023/12/07 08:15:10;;;;;;;8.77;5.43;;;-1.30;99.90;;;;;;5020567;28;20382;-74
2023/12/07 08:17:41;;;;;;;5.40;4.83;;;-1.30;99.90;;;;;;5023798;28;20028;-74
2023/12/07 08:20:11;;;;;;;8.48;5.90;;;-1.40;99.90;;;;;;5019675;28;20064;-74
2023/12/07 08:22:37;;;;;;;6.25;5.32;;;-1.50;99.90;;;;;;5018917;28;20509;-74
2023/12/07 08:25:05;;;;;;;10.00;6.80;;;-1.50;99.90;;;;;;5026024;28;20037;-74
2023/12/07 08:27:32;;;;;;;10.18;5.75;;;-1.50;99.90;;;;;;5036588;28;20025;-74
2023/12/07 08:29:58;;;;;;;7.15;5.65;;;-1.40;99.90;;;;;;5021239;28;20029;-74
2023/12/07 08:32:25;;;;;;;10.38;6.38;;;-1.30;99.90;;;;;;5012456;28;20056;-74
2023/12/07 08:34:52;;;;;;;8.52;5.38;;;-1.30;99.90;;;;;;5022810;28;20025;-74
2023/12/07 08:37:17;;;;;;;7.25;5.68;;;-1.30;99.90;;;;;;5016139;28;20034;-74
2023/12/07 08:39:43;;;;;;;7.90;6.07;;;-1.30;99.90;;;;;;5024269;28;20029;-74
2023/12/07 08:42:09;;;;;;;5.72;4.95;;;-1.20;99.90;;;;;;5023461;28;20029;-74
2023/12/07 08:44:35;;;;;;;8.50;6.55;;;-1.20;99.90;;;;;;5025126;28;20033;-74
2023/12/07 08:47:00;;;;;;;6.20;5.18;;;-1.20;99.90;;;;;;5016961;28;20038;-74
2023/12/07 08:49:26;;;;;;;7.22;6.20;;;-1.30;99.90;;;;;;5024382;28;20371;-74
2023/12/07 08:51:52;;;;;;;7.47;5.13;;;-1.20;99.90;;;;;;5021197;28;20594;-74
2023/12/07 08:54:18;;;;;;;7.45;5.75;;;-1.20;99.90;;;;;;5019566;28;20022;-74
2023/12/07 08:56:45;;;;;;;5.15;4.50;;;-1.20;99.90;;;;;;5016007;28;20048;-75
2023/12/07 08:59:11;;;;;;;6.22;4.88;;;-1.40;99.90;;;;;;5020601;28;20025;-74
2023/12/07 09:01:37;;;;;;;5.30;4.80;;;-1.50;99.90;;;;;;5016012;28;20037;-74
2023/12/07 09:04:03;;;;;;;7.88;4.97;;;-1.50;99.90;;;;;;5024811;28;20785;-74
2023/12/07 09:06:29;;;;;;;8.98;5.55;;;-1.50;99.90;;;;;;5025399;28;20033;-74
2023/12/07 09:08:55;;;;;;;6.93;6.10;;;-1.40;99.90;;;;;;5023110;28;20022;-74
2023/12/07 09:11:21;;;;;;;10.35;6.10;;;-1.30;99.90;;;;;;5021973;28;20726;-74
2023/12/07 09:13:47;;;;;;;6.60;5.03;;;-1.30;99.90;;;;;;5022497;28;20030;-74
2023/12/07 09:16:12;;;;;;;7.45;5.57;;;-1.30;99.90;;;;;;5023587;28;20053;-74
2023/12/07 09:18:38;;;;;;;9.40;6.45;;;-1.20;99.90;;;;;;5022173;28;20041;-74
2023/12/07 09:21:04;;;;;;;6.28;5.38;;;-1.20;99.90;;;;;;5021816;28;20045;-74
2023/12/07 09:23:35;;;;;;;9.52;5.63;;;-1.10;99.90;;;;;;5025131;28;20546;-77
2023/12/07 09:26:09;;;;;;;11.82;6.70;;;-1.00;99.90;;;;;;5022909;28;20122;-74
2023/12/07 09:28:48;;;;;;;7.22;6.15;;;-0.90;99.90;;;;;;5017013;28;20029;-74
2023/12/07 09:31:15;;;;;;;6.85;6.03;;;-0.90;99.90;;;;;;5034244;28;20071;-73
2023/12/07 09:33:47;;;;;;;7.75;6.40;;;-0.80;99.90;;;;;;5023437;28;20096;-74
2023/12/07 09:36:18;;;;;;;8.32;5.35;;;-0.80;99.90;;;;;;5027749;28;20096;-74
2023/12/07 09:38:47;;;;;;;7.47;5.57;;;-0.80;99.90;;;;;;5033364;28;20045;-74
2023/12/07 09:41:23;;;;;;;7.72;5.65;;;-0.80;99.90;;;;;;5030297;28;20573;-74
2023/12/07 09:43:49;;;;;;;7.30;5.22;;;-0.80;99.90;;;;;;5027398;28;20026;-75
2023/12/07 09:46:15;;;;;;;8.70;6.10;;;-0.80;99.90;;;;;;5031551;28;20096;-74
2023/12/07 09:48:44;;;;;;;13.38;7.32;;;-0.70;99.90;;;;;;5028425;28;20047;-75
2023/12/07 09:51:11;;;;;;;;;;;-0.70;99.90;;;;;;5030786;28;20029;-74
2023/12/07 09:53:39;;;;;;;7.60;5.90;;;-0.80;99.90;;;;;;5034323;28;19913;-75
2023/12/07 09:56:05;;;;;;;;;;;-0.80;99.90;;;;;;5026849;28;20026;-74
2023/12/07 09:58:31;;;;;;;10.18;6.90;;;-0.70;99.90;;;;;;5028742;28;20389;-74
2023/12/07 10:00:56;;;;;;;9.07;7.15;;;-0.70;99.90;;;;;;5025150;28;20083;-74
2023/12/07 10:03:23;;;;;;;8.65;7.45;;;-0.60;99.90;;;;;;5031445;28;20284;-74
2023/12/07 10:05:57;;;;;;;9.13;7.15;;;-0.50;99.90;;;;;;5034669;28;20049;-74
2023/12/07 10:08:40;;;;;;;10.00;7.45;;;-0.50;99.90;;;;;;5031155;28;20494;-74
2023/12/07 10:11:08;;;;;;;11.48;7.18;;;-0.50;99.90;;;;;;5027609;28;20095;-75
2023/12/07 10:13:36;;;;;;;14.93;8.18;;;-0.50;99.90;;;;;;5022655;28;20602;-74
2023/12/07 10:16:16;;;;;;;12.88;7.63;;;-0.50;99.90;;;;;;5032833;28;20032;-74
2023/12/07 10:18:42;;;;;;;14.55;8.50;;;-0.40;99.90;;;;;;5028226;28;20024;-74
2023/12/07 10:21:09;;;;;;;9.88;7.68;;;-0.30;99.90;;;;;;5032128;28;20560;-74
2023/12/07 10:23:37;;;;;;;12.73;9.30;;;-0.30;99.90;;;;;;5032369;28;20406;-74
2023/12/07 10:26:03;;;;;;;12.98;7.85;;;-0.20;99.90;;;;;;5031521;28;20604;-74
2023/12/07 10:28:29;;;;;;;11.43;8.65;;;-0.20;99.90;;;;;;5026065;28;20113;-74
2023/12/07 10:30:56;;;;;;;11.52;7.38;;;-0.10;99.90;;;;;;5021238;28;20451;-74
2023/12/07 10:33:22;;;;;;;17.90;7.78;;;-0.10;99.90;;;;;;5025500;28;20083;-75
2023/12/07 10:35:51;;;;;;;11.07;6.97;;;-0.10;99.90;;;;;;5026009;28;20034;-74
2023/12/07 10:38:17;;;;;;;8.98;6.13;;;-0.10;99.90;;;;;;5024271;28;20026;-75
2023/12/07 10:40:43;;;;;;;9.40;6.63;;;-0.10;99.90;;;;;;5028585;28;20037;-75
2023/12/07 10:43:09;;;;;;;10.23;6.28;;;0.00;99.90;;;;;;5029400;28;20073;-75
2023/12/07 10:45:37;;;;;;;12.15;7.15;;;0.00;99.90;;;;;;5031205;28;20026;-75
2023/12/07 10:48:05;;;;;;;13.13;7.32;;;0.10;99.90;;;;;;5021612;28;20022;-75
2023/12/07 10:50:34;;;;;;;10.55;7.07;;;0.10;99.90;;;;;;5036047;28;20025;-75
2023/12/07 10:53:10;;;;;;;12.13;6.65;;;0.10;99.90;;;;;;5036182;28;20041;-75
2023/12/07 10:55:48;;;;;;;10.38;6.60;;;0.10;99.90;;;;;;5035269;28;20048;-75
2023/12/07 10:58:16;;;;;;;7.95;6.60;;;0.10;99.90;;;;;;5036116;28;20042;-75
2023/12/07 11:00:48;;;;;;;10.98;6.80;;;0.20;99.90;;;;;;5033804;28;20042;-75
2023/12/07 11:03:18;;;;;;;11.88;6.88;;;0.20;99.90;;;;;;5032702;28;20097;-75
2023/12/07 11:05:48;;;;;;;11.02;7.13;;;0.20;99.90;;;;;;5029809;28;20041;-75
2023/12/07 11:08:38;;;;;;;11.73;6.72;;;0.20;99.90;;;;;;5028926;28;20079;-76
2023/12/07 11:11:14;;;;;;;9.27;6.40;;;0.20;99.90;;;;;;5032426;28;20047;-76
2023/12/07 11:13:57;;;;;;;10.43;6.68;;;0.30;99.90;;;;;;5020887;28;20053;-76
2023/12/07 11:16:30;;;;;;;10.25;5.75;;;0.20;99.90;;;;;;5034136;28;20452;-76
2023/12/07 11:18:57;;;;;;;12.32;7.00;;;0.30;99.90;;;;;;5031431;28;20027;-76
2023/12/07 11:21:23;;;;;;;10.70;6.72;;;0.40;99.90;;;;;;5030885;28;20077;-75
2023/12/07 11:23:48;;;;;;;9.07;6.07;;;0.40;99.90;;;;;;5033307;28;20029;-76
2023/12/07 11:26:14;;;;;;;10.80;6.72;;;0.50;99.90;;;;;;5032702;28;20017;-75
2023/12/07 11:28:40;;;;;;;10.32;6.90;;;0.50;99.90;;;;;;5030863;28;20482;-76
2023/12/07 11:31:09;;;;;;;8.23;5.88;;;0.60;99.90;;;;;;5023504;28;20042;-76
2023/12/07 11:33:39;;;;;;;9.82;6.28;;;0.60;99.90;;;;;;5032425;28;20022;-76
2023/12/07 11:36:08;;;;;;;10.85;7.50;;;0.70;99.90;;;;;;5027227;28;20071;-76
2023/12/07 11:38:55;;;;;;;8.93;5.72;;;0.80;99.90;;;;;;5031282;28;20375;-76
2023/12/07 11:41:21;;;;;;;10.35;6.70;;;0.80;99.90;;;;;;5024234;28;20080;-76
2023/12/07 11:43:47;;;;;;;11.15;6.82;;;0.80;99.90;;;;;;5033987;28;20033;-76
2023/12/07 11:46:14;;;;;;;10.82;6.60;;;0.80;99.90;;;;;;5038869;28;20068;-76
2023/12/07 11:48:49;;;;;;;9.75;6.85;;;0.90;99.90;;;;;;5027728;28;20049;-76
2023/12/07 11:51:17;;;;;;;11.40;6.47;;;0.90;99.90;;;;;;5033166;28;20144;-75
2023/12/07 11:53:42;;;;;;;9.20;5.63;;;1.00;99.90;;;;;;5028241;28;20121;-76
2023/12/07 11:56:09;;;;;;;10.68;6.93;;;1.00;99.90;;;;;;5034446;28;20152;-75
2023/12/07 11:58:36;;;;;;;5.68;4.30;;;1.10;99.90;;;;;;5028269;28;20021;-76
2023/12/07 12:01:03;;;;;;;9.00;5.22;;;1.10;99.90;;;;;;5024574;28;20030;-75
2023/12/07 12:03:32;;;;;;;10.52;6.28;;;1.20;99.90;;;;;;5029048;28;20026;-76
2023/12/07 12:05:58;;;;;;;13.32;6.15;;;1.20;99.90;;;;;;5025464;28;20022;-75
2023/12/07 12:08:24;;;;;;;11.27;5.55;;;1.30;99.90;;;;;;5024643;28;20029;-75
2023/12/07 12:10:53;;;;;;;4.20;3.78;;;1.40;99.90;;;;;;5034762;28;20041;-75
2023/12/07 12:13:19;;;;;;;4.13;3.42;;;1.50;99.90;;;;;;5025845;28;20032;-75
2023/12/07 12:15:49;;;;;;;3.17;2.83;;;1.60;99.90;;;;;;5029726;28;20022;-77
2023/12/07 12:18:16;;;;;;;4.93;3.20;;;1.70;99.90;;;;;;5028021;28;20073;-76
2023/12/07 12:20:45;;;;;;;3.15;2.80;;;1.80;99.90;;;;;;5030975;28;20069;-76
2023/12/07 12:23:11;;;;;;;2.75;2.30;;;1.70;99.90;;;;;;5028313;28;20057;-76
2023/12/07 12:25:37;;;;;;;2.45;1.98;;;1.80;99.90;;;;;;5034945;28;20048;-78
2023/12/07 12:28:05;;;;;;;2.72;2.17;;;1.90;99.90;;;;;;5035430;28;20041;-75
2023/12/07 12:30:32;;;;;;;2.00;1.90;;;2.00;99.90;;;;;;5035325;28;20071;-75
2023/12/07 12:32:59;;;;;;;2.83;2.03;;;2.10;99.90;;;;;;5041019;28;20088;-75
2023/12/07 12:35:25;;;;;;;2.07;1.97;;;2.10;99.90;;;;;;5037196;28;20083;-75
2023/12/07 12:37:51;;;;;;;2.00;1.90;;;2.10;99.90;;;;;;5027549;28;20363;-75
2023/12/07 12:40:19;;;;;;;3.53;2.47;;;2.10;99.90;;;;;;5034775;28;20133;-76
2023/12/07 12:42:52;;;;;;;2.70;1.90;;;2.20;99.90;;;;;;5032785;28;20026;-75
2023/12/07 12:45:19;;;;;;;2.72;2.45;;;2.20;99.90;;;;;;5035343;28;20041;-76
2023/12/07 12:47:47;;;;;;;3.28;2.92;;;2.20;99.90;;;;;;5027428;28;20036;-76
2023/12/07 12:50:35;;;;;;;3.03;2.77;;;2.30;99.90;;;;;;5035232;28;20076;-75